VECC/CCU METAR and TAF weather

Enter ICAO airport designator
Station Type Date Time Source
VECC METAR 2021/03/03 21:00 UTC NOAA

VECC 032100Z 00000KT 2800 HZ NSC 22/17 Q1010 NOSIG


Station Type Date Time Source
VECC Decoded METAR 2021/03/03 21:00 UTC NOAA

Calcutta / Dum Dum, India (VECC) 22-39N 088-27E 6M
Mar 03, 2021 - 04:00 PM EST / 2021.03.03 2100 UTC
Wind: Calm:0
Visibility: 1 mile(s):0
Weather: haze
Temperature: 71 F (22 C)
Dew Point: 62 F (17 C)
Relative Humidity: 73%
Pressure (altimeter): 29.83 in. Hg (1010 hPa)
ob: VECC 032100Z 00000KT 2800 HZ NSC 22/17 Q1010 NOSIG
cycle: 21

Station Type Date Time Source
VECC TAF 2021/03/03 18:39 UTC NOAA

TAF VECC 031700Z 0318/0424 00000KT 2600 HZ NSC
BECMG 0323/0401 0900 MIFG
BECMG 0402/0404 24005KT 2000 BR
BECMG 0408/0410 3500 HZ
BECMG 0414/0416 00000KT 2800 HZ
BECMG 0421/0423 1400 BR

Example: see airport list